createdAt,value
2022-11-15T00:00:57.468Z,100654.00
2022-11-15T00:03:27.288Z,100661.00
2022-11-15T00:05:54.368Z,100662.00
2022-11-15T00:08:21.317Z,100671.00
2022-11-15T00:10:58.984Z,100665.00
2022-11-15T00:13:25.968Z,100672.00
2022-11-15T00:15:52.522Z,100665.00
2022-11-15T00:18:19.956Z,100674.00
2022-11-15T00:20:46.553Z,100673.00
2022-11-15T00:23:13.228Z,100670.00
2022-11-15T00:25:39.801Z,100666.00
2022-11-15T00:28:06.402Z,100668.00
2022-11-15T00:30:33.181Z,100665.00
2022-11-15T00:33:07.316Z,100669.00
2022-11-15T00:35:35.125Z,100673.00
2022-11-15T00:38:02.722Z,100665.00
2022-11-15T00:40:29.900Z,100666.00
2022-11-15T00:42:56.823Z,100663.00
2022-11-15T00:45:23.780Z,100664.00
2022-11-15T00:47:50.422Z,100667.00
2022-11-15T00:50:17.792Z,100669.00
2022-11-15T00:52:44.916Z,100672.00
2022-11-15T00:55:18.458Z,100668.00
2022-11-15T00:57:45.315Z,100663.00
2022-11-15T01:00:12.740Z,100662.00
2022-11-15T01:02:39.401Z,100667.00
2022-11-15T01:05:06.772Z,100667.00
2022-11-15T01:07:33.475Z,100663.00
2022-11-15T01:10:00.119Z,100660.00
2022-11-15T01:12:26.669Z,100661.00
2022-11-15T01:14:53.255Z,100659.00
2022-11-15T01:17:19.837Z,100664.00
2022-11-15T01:19:46.461Z,100654.00
2022-11-15T01:22:13.196Z,100659.00
2022-11-15T01:24:39.767Z,100661.00
2022-11-15T01:27:06.646Z,100664.00
2022-11-15T01:29:33.296Z,100664.00
2022-11-15T01:31:59.905Z,100655.00
2022-11-15T01:34:26.491Z,100655.00
2022-11-15T01:36:53.108Z,100652.00
2022-11-15T01:39:19.635Z,100648.00
2022-11-15T01:41:46.231Z,100647.00
2022-11-15T01:44:34.631Z,100647.00
2022-11-15T01:47:04.215Z,100650.00
2022-11-15T01:49:34.751Z,100647.00
2022-11-15T01:52:04.724Z,100646.00
2022-11-15T01:54:31.881Z,100642.00
2022-11-15T01:57:11.505Z,100641.00
2022-11-15T01:59:40.399Z,100646.00
2022-11-15T02:02:07.288Z,100650.00
2022-11-15T02:04:36.927Z,100642.00
2022-11-15T02:07:06.504Z,100635.00
2022-11-15T02:09:33.129Z,100629.00
2022-11-15T02:12:00.831Z,100629.00
2022-11-15T02:14:29.609Z,100622.00
2022-11-15T02:17:05.195Z,100626.00
2022-11-15T02:19:34.687Z,100630.00
2022-11-15T02:22:24.099Z,100620.00
2022-11-15T02:25:08.779Z,100616.00
2022-11-15T02:28:04.329Z,100615.00
2022-11-15T02:30:48.715Z,100614.00
2022-11-15T02:33:34.217Z,100614.00
2022-11-15T02:36:02.200Z,100615.00
2022-11-15T02:38:43.717Z,100608.00
2022-11-15T02:41:13.110Z,100605.00
2022-11-15T02:43:58.098Z,100605.00
2022-11-15T02:47:03.786Z,100605.00
2022-11-15T02:49:33.597Z,100596.00
2022-11-15T02:52:00.264Z,100600.00
2022-11-15T02:54:30.822Z,100598.00
2022-11-15T02:57:05.310Z,100591.00
2022-11-15T02:59:54.371Z,100587.00
2022-11-15T03:02:35.777Z,100589.00
2022-11-15T03:05:26.444Z,100593.00
2022-11-15T03:08:18.694Z,100581.00
2022-11-15T03:11:09.080Z,100587.00
2022-11-15T03:13:38.684Z,100580.00
2022-11-15T03:16:15.838Z,100582.00
2022-11-15T03:18:46.633Z,100573.00
2022-11-15T03:21:15.379Z,100571.00
2022-11-15T03:23:44.114Z,100574.00
2022-11-15T03:26:13.711Z,100572.00
2022-11-15T03:28:43.266Z,100570.00
2022-11-15T03:31:30.682Z,100571.00
2022-11-15T03:33:58.949Z,100587.00
2022-11-15T03:36:26.639Z,100587.00
2022-11-15T03:39:01.499Z,100579.00
2022-11-15T03:41:57.506Z,100577.00
2022-11-15T03:45:02.542Z,100578.00
2022-11-15T03:47:37.568Z,100582.00
2022-11-15T03:50:09.640Z,100569.00
2022-11-15T03:52:36.824Z,100569.00
2022-11-15T03:55:06.117Z,100578.00
2022-11-15T03:57:32.782Z,100586.00
2022-11-15T03:59:59.314Z,100579.00
2022-11-15T04:02:25.941Z,100582.00
2022-11-15T04:04:52.528Z,100567.00
2022-11-15T04:07:19.262Z,100571.00
2022-11-15T04:10:04.326Z,100572.00
2022-11-15T04:12:35.427Z,100569.00
2022-11-15T04:15:09.845Z,100578.00
2022-11-15T04:17:41.017Z,100576.00
2022-11-15T04:20:48.067Z,100571.00
2022-11-15T04:23:43.550Z,100575.00
2022-11-15T04:26:17.985Z,100575.00
2022-11-15T04:29:03.462Z,100576.00
2022-11-15T04:31:30.015Z,100587.00
2022-11-15T04:33:56.801Z,100569.00
2022-11-15T04:36:42.667Z,100560.00
2022-11-15T04:39:09.575Z,100567.00
2022-11-15T04:41:36.444Z,100566.00
2022-11-15T04:44:03.232Z,100561.00
2022-11-15T04:46:29.933Z,100567.00
2022-11-15T04:48:59.015Z,100568.00
2022-11-15T04:51:26.524Z,100564.00
2022-11-15T04:53:53.465Z,100557.00
2022-11-15T04:56:20.213Z,100556.00
2022-11-15T04:58:49.290Z,100550.00
2022-11-15T05:01:16.245Z,100551.00
2022-11-15T05:04:04.560Z,100548.00
2022-11-15T05:06:31.505Z,100546.00
2022-11-15T05:08:58.580Z,100560.00
2022-11-15T05:11:25.383Z,100556.00
2022-11-15T05:13:51.991Z,100567.00
2022-11-15T05:16:18.629Z,100558.00
2022-11-15T05:18:45.585Z,100549.00
2022-11-15T05:21:15.269Z,100544.00
2022-11-15T05:23:42.677Z,100545.00
2022-11-15T05:26:10.024Z,100540.00
2022-11-15T05:28:37.573Z,100540.00
2022-11-15T05:31:12.845Z,100533.00
2022-11-15T05:33:40.852Z,100535.00
2022-11-15T05:36:28.540Z,100536.00
2022-11-15T05:38:55.594Z,100531.00
2022-11-15T05:41:30.774Z,100533.00
2022-11-15T05:43:57.996Z,100536.00
2022-11-15T05:46:24.757Z,100543.00
2022-11-15T05:48:52.511Z,100533.00
2022-11-15T05:51:21.486Z,100532.00
2022-11-15T05:53:48.655Z,100527.00
2022-11-15T05:56:16.041Z,100530.00
2022-11-15T05:58:43.590Z,100532.00
2022-11-15T06:01:10.360Z,100533.00
2022-11-15T06:03:36.928Z,100528.00
2022-11-15T06:06:03.571Z,100532.00
2022-11-15T06:08:30.158Z,100521.00
2022-11-15T06:10:56.721Z,100525.00
2022-11-15T06:13:23.323Z,100522.00
2022-11-15T06:15:50.003Z,100518.00
2022-11-15T06:18:16.606Z,100520.00
2022-11-15T06:20:43.269Z,100510.00
2022-11-15T06:23:09.869Z,100507.00
2022-11-15T06:25:36.454Z,100500.00
2022-11-15T06:28:03.136Z,100503.00
2022-11-15T06:30:29.697Z,100511.00
2022-11-15T06:33:01.650Z,100505.00
2022-11-15T06:35:28.656Z,100504.00
2022-11-15T06:37:55.355Z,100500.00
2022-11-15T06:40:22.032Z,100494.00
2022-11-15T06:42:48.671Z,100498.00
2022-11-15T06:45:15.600Z,100493.00
2022-11-15T06:47:47.635Z,100484.00
2022-11-15T06:50:14.442Z,100485.00
2022-11-15T06:52:41.060Z,100477.00
2022-11-15T06:55:09.067Z,100473.00
2022-11-15T06:57:36.133Z,100472.00
2022-11-15T07:00:05.295Z,100453.00
2022-11-15T07:02:32.178Z,100467.00
2022-11-15T07:04:58.753Z,100466.00
2022-11-15T07:07:25.402Z,100461.00
2022-11-15T07:09:51.988Z,100458.00
2022-11-15T07:12:18.571Z,100458.00
2022-11-15T07:14:45.132Z,100456.00
2022-11-15T07:17:11.738Z,100462.00
2022-11-15T07:19:38.274Z,100469.00
2022-11-15T07:22:04.885Z,100462.00
2022-11-15T07:24:31.425Z,100465.00
2022-11-15T07:26:58.033Z,100463.00
2022-11-15T07:29:24.880Z,100465.00
2022-11-15T07:31:51.678Z,100458.00
2022-11-15T07:34:18.291Z,100457.00
2022-11-15T07:36:44.921Z,100455.00
2022-11-15T07:39:13.144Z,100452.00
2022-11-15T07:41:39.887Z,100445.00
2022-11-15T07:44:06.530Z,100449.00
2022-11-15T07:46:33.139Z,100439.00
2022-11-15T07:48:59.711Z,100442.00
2022-11-15T07:51:26.341Z,100441.00
2022-11-15T07:53:52.978Z,100444.00
2022-11-15T07:56:19.803Z,100444.00
2022-11-15T07:58:47.806Z,100434.00
2022-11-15T08:01:14.544Z,100429.00
2022-11-15T08:03:41.226Z,100426.00
2022-11-15T08:06:07.915Z,100432.00
2022-11-15T08:08:34.456Z,100438.00
2022-11-15T08:11:01.578Z,100433.00
2022-11-15T08:13:28.989Z,100426.00
2022-11-15T08:16:00.740Z,100426.00
2022-11-15T08:18:27.411Z,100428.00
2022-11-15T08:20:53.950Z,100432.00
2022-11-15T08:23:20.603Z,100423.00
2022-11-15T08:25:47.144Z,100416.00
2022-11-15T08:28:13.753Z,100419.00
2022-11-15T08:30:43.722Z,100425.00
2022-11-15T08:33:14.715Z,100412.00
2022-11-15T08:35:42.469Z,100416.00
2022-11-15T08:38:09.344Z,100401.00
2022-11-15T08:40:36.401Z,100401.00
2022-11-15T08:43:03.671Z,100402.00
2022-11-15T08:45:31.832Z,100389.00
2022-11-15T08:47:58.633Z,100386.00
2022-11-15T08:50:25.181Z,100395.00
2022-11-15T08:52:51.765Z,100389.00
2022-11-15T08:55:18.414Z,100390.00
2022-11-15T08:57:45.723Z,100378.00
2022-11-15T09:00:13.589Z,100382.00
2022-11-15T09:02:40.871Z,100381.00
2022-11-15T09:05:08.745Z,100368.00
2022-11-15T09:07:35.462Z,100363.00
2022-11-15T09:10:02.074Z,100362.00
2022-11-15T09:12:28.787Z,100359.00
2022-11-15T09:14:55.768Z,100367.00
2022-11-15T09:17:25.016Z,100369.00
2022-11-15T09:19:52.115Z,100371.00
2022-11-15T09:22:19.162Z,100354.00
2022-11-15T09:24:45.901Z,100362.00
2022-11-15T09:27:13.553Z,100347.00
2022-11-15T09:29:40.265Z,100349.00
2022-11-15T09:32:07.087Z,100345.00
2022-11-15T09:34:33.761Z,100347.00
2022-11-15T09:37:00.341Z,100340.00
2022-11-15T09:39:26.909Z,100342.00
2022-11-15T09:42:07.032Z,100332.00
2022-11-15T09:44:51.197Z,100335.00
2022-11-15T09:47:23.495Z,100347.00
2022-11-15T09:49:57.912Z,100326.00
2022-11-15T09:52:25.721Z,100320.00
2022-11-15T09:54:55.208Z,100305.00
2022-11-15T09:57:45.632Z,100306.00
2022-11-15T10:03:17.758Z,100297.00
2022-11-15T10:05:48.174Z,100312.00
2022-11-15T10:08:23.553Z,100290.00
2022-11-15T10:11:22.743Z,100286.00
2022-11-15T10:13:48.635Z,100286.00
2022-11-15T10:16:39.944Z,100279.00
2022-11-15T10:19:06.439Z,100286.00
2022-11-15T10:22:01.289Z,100279.00
2022-11-15T10:24:32.242Z,100282.00
2022-11-15T10:26:58.913Z,100281.00
2022-11-15T10:29:27.269Z,100283.00
2022-11-15T10:31:54.376Z,100291.00
2022-11-15T10:34:23.497Z,100279.00
2022-11-15T10:37:02.692Z,100275.00
2022-11-15T10:39:29.639Z,100276.00
2022-11-15T10:41:57.955Z,100267.00
2022-11-15T10:44:29.738Z,100254.00
2022-11-15T10:46:56.284Z,100244.00
2022-11-15T10:49:29.621Z,100229.00
2022-11-15T10:52:18.250Z,100238.00
2022-11-15T10:54:53.230Z,100222.00
2022-11-15T10:57:24.850Z,100222.00
2022-11-15T10:59:58.424Z,100212.00
2022-11-15T11:02:30.797Z,100206.00
2022-11-15T11:04:57.350Z,100207.00
2022-11-15T11:07:27.740Z,100200.00
2022-11-15T11:10:51.164Z,100205.00
2022-11-15T11:13:25.610Z,100185.00
2022-11-15T11:16:08.725Z,100169.00
2022-11-15T11:18:43.424Z,100168.00
2022-11-15T11:21:14.633Z,100168.00
2022-11-15T11:23:55.306Z,100161.00
2022-11-15T11:26:36.052Z,100152.00
2022-11-15T11:29:15.560Z,100149.00
2022-11-15T11:32:05.267Z,100138.00
2022-11-15T11:34:56.083Z,100136.00
2022-11-15T11:37:50.156Z,100141.00
2022-11-15T11:40:42.113Z,100138.00
2022-11-15T11:43:35.070Z,100136.00
2022-11-15T11:46:29.248Z,100134.00
2022-11-15T11:49:10.762Z,100122.00
2022-11-15T11:52:16.098Z,100119.00
2022-11-15T11:55:14.521Z,100113.00
2022-11-15T11:57:49.223Z,100099.00
2022-11-15T12:00:24.186Z,100111.00
2022-11-15T12:03:09.018Z,100103.00
2022-11-15T12:05:58.840Z,100096.00
2022-11-15T12:08:41.199Z,100087.00
2022-11-15T12:11:17.054Z,100081.00
2022-11-15T12:13:44.658Z,100080.00
2022-11-15T12:16:25.713Z,100070.00
2022-11-15T12:18:54.775Z,100077.00
2022-11-15T12:21:33.663Z,100067.00
2022-11-15T12:24:14.907Z,100062.00
2022-11-15T12:26:52.844Z,100047.00
2022-11-15T12:29:34.685Z,100054.00
2022-11-15T12:32:03.215Z,100041.00
2022-11-15T12:34:29.735Z,100034.00
2022-11-15T12:36:56.950Z,100030.00
2022-11-15T12:40:03.928Z,100022.00
2022-11-15T12:42:30.914Z,100017.00
2022-11-15T12:45:00.042Z,100002.00
2022-11-15T12:47:28.298Z,100000.00
2022-11-15T12:49:55.140Z,99986.00
2022-11-15T12:52:21.839Z,99984.00
2022-11-15T12:55:00.108Z,99978.00
2022-11-15T12:57:36.344Z,99966.00
2022-11-15T13:00:25.460Z,99968.00
2022-11-15T13:03:24.428Z,99965.00
2022-11-15T13:05:59.072Z,99963.00
2022-11-15T13:08:48.670Z,99962.00
2022-11-15T13:11:51.885Z,99952.00
2022-11-15T13:14:40.930Z,99941.00
2022-11-15T13:17:27.331Z,99929.00
2022-11-15T13:20:07.603Z,99931.00
2022-11-15T13:22:53.064Z,99924.00
2022-11-15T13:25:31.495Z,99920.00
2022-11-15T13:28:06.576Z,99915.00
2022-11-15T13:30:34.564Z,99909.00
2022-11-15T13:33:10.723Z,99915.00
2022-11-15T13:35:41.036Z,99914.00
2022-11-15T13:38:07.735Z,99904.00
2022-11-15T13:40:38.745Z,99915.00
2022-11-15T13:43:28.541Z,99908.00
2022-11-15T13:46:28.335Z,99910.00
2022-11-15T13:48:57.933Z,99906.00
2022-11-15T13:51:36.403Z,99899.00
2022-11-15T13:54:38.689Z,99887.00
2022-11-15T13:57:11.370Z,99892.00
2022-11-15T14:00:04.445Z,99902.00
2022-11-15T14:02:36.267Z,99895.00
2022-11-15T14:05:21.035Z,99888.00
2022-11-15T14:07:54.154Z,99881.00
2022-11-15T14:10:31.782Z,99882.00
2022-11-15T14:12:58.770Z,99877.00
2022-11-15T14:15:34.968Z,99875.00
2022-11-15T14:18:02.186Z,99876.00
2022-11-15T14:20:29.483Z,99871.00
2022-11-15T14:23:01.505Z,99864.00
2022-11-15T14:25:30.666Z,99879.00
2022-11-15T14:28:30.894Z,99872.00
2022-11-15T14:30:59.370Z,99875.00
2022-11-15T14:33:34.942Z,99864.00
2022-11-15T14:36:19.501Z,99858.00
2022-11-15T14:38:46.805Z,99863.00
2022-11-15T14:41:25.054Z,99871.00
2022-11-15T14:43:52.774Z,99856.00
2022-11-15T14:46:19.919Z,99855.00
2022-11-15T14:48:46.652Z,99849.00
2022-11-15T14:51:20.218Z,99840.00
2022-11-15T14:53:47.595Z,99844.00
2022-11-15T14:56:15.122Z,99841.00
2022-11-15T14:58:41.940Z,99836.00
2022-11-15T15:01:20.338Z,99830.00
2022-11-15T15:03:47.006Z,99825.00
2022-11-15T15:06:18.018Z,99824.00
2022-11-15T15:08:46.120Z,99820.00
2022-11-15T15:11:29.040Z,99829.00
2022-11-15T15:13:58.070Z,99811.00
2022-11-15T15:16:25.321Z,99817.00
2022-11-15T15:18:52.257Z,99804.00
2022-11-15T15:21:23.455Z,99819.00
2022-11-15T15:23:50.219Z,99822.00
2022-11-15T15:26:17.069Z,99812.00
2022-11-15T15:28:43.905Z,99810.00
2022-11-15T15:31:11.603Z,99800.00
2022-11-15T15:33:38.637Z,99808.00
2022-11-15T15:36:05.814Z,99806.00
2022-11-15T15:38:32.631Z,99804.00
2022-11-15T15:41:00.642Z,99813.00
2022-11-15T15:43:27.256Z,99809.00
2022-11-15T15:45:53.865Z,99799.00
2022-11-15T15:48:20.524Z,99805.00
2022-11-15T15:50:48.349Z,99797.00
2022-11-15T15:53:15.023Z,99804.00
2022-11-15T15:55:41.771Z,99794.00
2022-11-15T15:58:09.339Z,99792.00
2022-11-15T16:00:37.806Z,99800.00
2022-11-15T16:03:04.933Z,99792.00
2022-11-15T16:05:31.528Z,99788.00
2022-11-15T16:07:58.150Z,99789.00
2022-11-15T16:10:30.521Z,99786.00
2022-11-15T16:12:58.379Z,99783.00
2022-11-15T16:15:30.106Z,99774.00
2022-11-15T16:17:58.723Z,99780.00
2022-11-15T16:20:40.397Z,99781.00
2022-11-15T16:23:09.992Z,99778.00
2022-11-15T16:25:41.893Z,99780.00
2022-11-15T16:28:18.917Z,99787.00
2022-11-15T16:30:45.651Z,99772.00
2022-11-15T16:33:12.329Z,99783.00
2022-11-15T16:35:38.973Z,99778.00
2022-11-15T16:38:05.540Z,99782.00
2022-11-15T16:40:34.494Z,99782.00
2022-11-15T16:43:03.031Z,99783.00
2022-11-15T16:45:30.002Z,99775.00
2022-11-15T16:47:57.504Z,99776.00
2022-11-15T16:50:30.032Z,99776.00
2022-11-15T16:52:58.988Z,99780.00
2022-11-15T16:55:28.631Z,99773.00
2022-11-15T16:57:58.163Z,99769.00
2022-11-15T17:00:28.466Z,99779.00
2022-11-15T17:02:56.165Z,99771.00
2022-11-15T17:05:24.478Z,99780.00
2022-11-15T17:07:55.378Z,99768.00
2022-11-15T17:10:23.535Z,99773.00
2022-11-15T17:12:56.062Z,99764.00
2022-11-15T17:15:30.464Z,99768.00
2022-11-15T17:17:57.098Z,99763.00
2022-11-15T17:20:25.019Z,99767.00
2022-11-15T17:22:52.846Z,99754.00
2022-11-15T17:25:19.938Z,99758.00
2022-11-15T17:27:46.585Z,99757.00
2022-11-15T17:30:15.586Z,99757.00
2022-11-15T17:32:43.282Z,99754.00
2022-11-15T17:35:15.563Z,99749.00
2022-11-15T17:37:43.348Z,99747.00
2022-11-15T17:40:10.537Z,99740.00
2022-11-15T17:42:37.130Z,99735.00
2022-11-15T17:45:09.370Z,99738.00
2022-11-15T17:47:37.291Z,99741.00
2022-11-15T17:50:06.481Z,99735.00
2022-11-15T17:52:33.250Z,99742.00
2022-11-15T17:54:59.944Z,99740.00
2022-11-15T17:57:26.541Z,99734.00
2022-11-15T17:59:53.490Z,99734.00
2022-11-15T18:02:20.159Z,99732.00
2022-11-15T18:04:46.695Z,99740.00
2022-11-15T18:07:14.275Z,99732.00
2022-11-15T18:09:43.997Z,99738.00
2022-11-15T18:12:11.701Z,99736.00
2022-11-15T18:14:38.522Z,99742.00
2022-11-15T18:17:05.236Z,99741.00
2022-11-15T18:19:31.829Z,99744.00
2022-11-15T18:22:01.803Z,99745.00
2022-11-15T18:24:30.882Z,99736.00
2022-11-15T18:26:58.594Z,99734.00
2022-11-15T18:29:25.440Z,99721.00
2022-11-15T18:31:55.874Z,99712.00
2022-11-15T18:34:28.787Z,99720.00
2022-11-15T18:36:55.507Z,99715.00
2022-11-15T18:39:22.033Z,99712.00
2022-11-15T18:41:49.096Z,99716.00
2022-11-15T18:44:16.150Z,99712.00
2022-11-15T18:46:45.013Z,99713.00
2022-11-15T18:49:13.665Z,99704.00
2022-11-15T18:51:43.358Z,99710.00
2022-11-15T18:54:12.204Z,99710.00
2022-11-15T18:56:39.158Z,99699.00
2022-11-15T18:59:06.361Z,99697.00
2022-11-15T19:01:35.525Z,99692.00
2022-11-15T19:04:10.523Z,99695.00
2022-11-15T19:06:39.648Z,99709.00
2022-11-15T19:09:07.411Z,99706.00
2022-11-15T19:11:37.772Z,99702.00
2022-11-15T19:14:09.133Z,99704.00
2022-11-15T19:16:44.596Z,99697.00
2022-11-15T19:19:17.380Z,99696.00
2022-11-15T19:21:44.237Z,99701.00
2022-11-15T19:24:11.177Z,99684.00
2022-11-15T19:26:38.180Z,99692.00
2022-11-15T19:29:06.739Z,99682.00
2022-11-15T19:31:34.063Z,99687.00
2022-11-15T19:34:03.045Z,99678.00
2022-11-15T19:36:34.925Z,99680.00
2022-11-15T19:39:05.674Z,99681.00
2022-11-15T19:41:32.539Z,99690.00
2022-11-15T19:43:59.229Z,99671.00
2022-11-15T19:46:26.847Z,99666.00
2022-11-15T19:48:54.440Z,99679.00
2022-11-15T19:51:26.592Z,99685.00
2022-11-15T19:53:55.530Z,99684.00
2022-11-15T19:56:22.883Z,99679.00
2022-11-15T19:58:54.530Z,99664.00
2022-11-15T20:01:24.230Z,99670.00
2022-11-15T20:03:54.583Z,99672.00
2022-11-15T20:06:26.575Z,99675.00
2022-11-15T20:08:53.518Z,99689.00
2022-11-15T20:11:20.725Z,99678.00
2022-11-15T20:13:47.705Z,99669.00
2022-11-15T20:16:21.863Z,99664.00
2022-11-15T20:18:53.050Z,99677.00
2022-11-15T20:21:20.633Z,99683.00
2022-11-15T20:23:47.951Z,99682.00
2022-11-15T20:26:15.297Z,99682.00
2022-11-15T20:28:42.277Z,99671.00
2022-11-15T20:31:10.428Z,99682.00
2022-11-15T20:33:37.283Z,99685.00
2022-11-15T20:36:06.053Z,99680.00
2022-11-15T20:38:32.994Z,99687.00
2022-11-15T20:41:00.527Z,99685.00
2022-11-15T20:43:27.620Z,99686.00
2022-11-15T20:45:54.326Z,99688.00
2022-11-15T20:48:21.569Z,99690.00
2022-11-15T20:50:48.235Z,99697.00
2022-11-15T20:53:17.881Z,99682.00
2022-11-15T20:55:49.512Z,99686.00
2022-11-15T20:58:17.536Z,99683.00
2022-11-15T21:00:45.724Z,99682.00
2022-11-15T21:03:14.219Z,99683.00
2022-11-15T21:05:43.324Z,99683.00
2022-11-15T21:08:11.666Z,99687.00
2022-11-15T21:10:57.319Z,99694.00
2022-11-15T21:13:23.955Z,99697.00
2022-11-15T21:15:50.643Z,99691.00
2022-11-15T21:18:17.473Z,99696.00
2022-11-15T21:20:44.078Z,99688.00
2022-11-15T21:23:12.037Z,99699.00
2022-11-15T21:25:38.655Z,99689.00
2022-11-15T21:28:05.540Z,99688.00
2022-11-15T21:30:32.165Z,99687.00
2022-11-15T21:33:01.833Z,99684.00
2022-11-15T21:35:28.645Z,99679.00
2022-11-15T21:37:57.181Z,99684.00
2022-11-15T21:40:24.680Z,99686.00
2022-11-15T21:42:51.354Z,99685.00
2022-11-15T21:45:17.979Z,99692.00
2022-11-15T21:47:46.333Z,99691.00
2022-11-15T21:50:13.855Z,99705.00
2022-11-15T21:52:40.940Z,99709.00
2022-11-15T21:55:08.516Z,99705.00
2022-11-15T21:57:35.194Z,99703.00
2022-11-15T22:00:23.878Z,99703.00
2022-11-15T22:02:50.482Z,99704.00
2022-11-15T22:05:17.160Z,99702.00
2022-11-15T22:07:43.768Z,99694.00
2022-11-15T22:10:10.573Z,99689.00
2022-11-15T22:12:37.251Z,99692.00
2022-11-15T22:15:06.955Z,99699.00
2022-11-15T22:17:52.332Z,99691.00
2022-11-15T22:20:43.406Z,99687.00
2022-11-15T22:23:07.630Z,99687.00
2022-11-15T22:25:34.263Z,99684.00
2022-11-15T22:28:00.855Z,99686.00
2022-11-15T22:30:27.590Z,99692.00
2022-11-15T22:32:54.161Z,99701.00
2022-11-15T22:35:23.517Z,99706.00
2022-11-15T22:37:50.133Z,99703.00
2022-11-15T22:40:17.020Z,99697.00
2022-11-15T22:42:43.711Z,99693.00
2022-11-15T22:45:10.549Z,99687.00
2022-11-15T22:47:38.272Z,99699.00
2022-11-15T22:50:06.547Z,99694.00
2022-11-15T22:52:33.268Z,99694.00
2022-11-15T22:54:59.861Z,99682.00
2022-11-15T22:57:26.470Z,99686.00
2022-11-15T22:59:53.138Z,99702.00
2022-11-15T23:02:19.881Z,99710.00
2022-11-15T23:04:46.575Z,99707.00
2022-11-15T23:07:13.600Z,99706.00
2022-11-15T23:09:40.273Z,99710.00
2022-11-15T23:12:27.063Z,99709.00
2022-11-15T23:14:53.592Z,99712.00
2022-11-15T23:17:20.251Z,99706.00
2022-11-15T23:19:47.143Z,99712.00
2022-11-15T23:22:32.150Z,99717.00
2022-11-15T23:24:59.660Z,99713.00
2022-11-15T23:27:26.332Z,99720.00
2022-11-15T23:30:11.405Z,99723.00
2022-11-15T23:32:56.427Z,99728.00
2022-11-15T23:35:23.137Z,99742.00
2022-11-15T23:37:50.089Z,99749.00
2022-11-15T23:40:16.974Z,99748.00
2022-11-15T23:42:43.686Z,99737.00
2022-11-15T23:45:10.590Z,99733.00
2022-11-15T23:47:37.184Z,99738.00
2022-11-15T23:50:04.706Z,99745.00
2022-11-15T23:52:31.702Z,99740.00
2022-11-15T23:54:58.398Z,99742.00
2022-11-15T23:57:24.977Z,99741.00
2022-11-15T23:59:54.635Z,99738.00
